createdAt,value
2023-02-04T00:01:43.353Z,7.47
2023-02-04T00:04:09.787Z,7.47
2023-02-04T00:06:36.088Z,7.50
2023-02-04T00:09:02.440Z,7.51
2023-02-04T00:11:28.772Z,7.51
2023-02-04T00:13:55.153Z,7.57
2023-02-04T00:16:21.589Z,7.54
2023-02-04T00:18:47.956Z,7.48
2023-02-04T00:21:14.269Z,7.40
2023-02-04T00:23:41.122Z,7.39
2023-02-04T00:26:07.666Z,7.45
2023-02-04T00:28:34.034Z,7.45
2023-02-04T00:31:00.354Z,7.41
2023-02-04T00:33:26.742Z,7.39
2023-02-04T00:35:53.054Z,7.24
2023-02-04T00:38:20.730Z,7.25
2023-02-04T00:40:47.012Z,7.29
2023-02-04T00:43:13.340Z,7.26
2023-02-04T00:45:39.801Z,7.26
2023-02-04T00:48:06.144Z,7.36
2023-02-04T00:50:34.832Z,7.21
2023-02-04T00:53:01.950Z,7.18
2023-02-04T00:55:29.499Z,7.26
2023-02-04T00:57:55.840Z,7.25
2023-02-04T01:00:22.339Z,7.25
2023-02-04T01:02:48.665Z,7.32
2023-02-04T01:05:15.093Z,7.23
2023-02-04T01:07:41.473Z,7.19
2023-02-04T01:10:07.899Z,7.20
2023-02-04T01:12:34.385Z,7.21
2023-02-04T01:15:00.893Z,7.10
2023-02-04T01:17:27.263Z,7.13
2023-02-04T01:19:53.837Z,7.14
2023-02-04T01:22:20.412Z,7.04
2023-02-04T01:24:46.892Z,7.09
2023-02-04T01:27:31.828Z,7.05
2023-02-04T01:29:58.133Z,6.98
2023-02-04T01:32:24.454Z,6.96
2023-02-04T01:34:52.136Z,6.92
2023-02-04T01:37:18.764Z,6.98
2023-02-04T01:39:45.077Z,7.06
2023-02-04T01:42:13.374Z,6.99
2023-02-04T01:44:39.941Z,6.99
2023-02-04T01:47:06.402Z,7.02
2023-02-04T01:49:32.999Z,7.03
2023-02-04T01:51:59.612Z,7.01
2023-02-04T01:54:26.699Z,6.99
2023-02-04T01:56:55.089Z,7.18
2023-02-04T01:59:22.139Z,7.08
2023-02-04T02:01:51.116Z,7.13
2023-02-04T02:04:22.833Z,7.17
2023-02-04T02:06:58.736Z,7.07
2023-02-04T02:09:27.105Z,7.07
2023-02-04T02:11:53.596Z,7.10
2023-02-04T02:14:20.344Z,7.02
2023-02-04T02:16:46.901Z,7.09
2023-02-04T02:19:20.000Z,7.11
2023-02-04T02:21:54.944Z,7.05
2023-02-04T02:24:34.481Z,7.01
2023-02-04T02:27:08.289Z,7.05
2023-02-04T02:29:36.357Z,7.12
2023-02-04T02:32:02.698Z,6.97
2023-02-04T02:34:30.181Z,6.95
2023-02-04T02:36:58.679Z,7.01
2023-02-04T02:39:26.024Z,7.12
2023-02-04T02:41:52.516Z,7.05
2023-02-04T02:44:19.232Z,7.08
2023-02-04T02:46:45.622Z,7.09
2023-02-04T02:49:19.759Z,6.97
2023-02-04T02:51:48.470Z,7.02
2023-02-04T02:54:27.204Z,7.05
2023-02-04T02:56:56.810Z,7.02
2023-02-04T02:59:24.683Z,6.95
2023-02-04T03:01:57.343Z,6.94
2023-02-04T03:04:28.477Z,6.91
2023-02-04T03:06:56.038Z,6.93
2023-02-04T03:09:25.147Z,7.00
2023-02-04T03:11:52.124Z,6.92
2023-02-04T03:14:19.208Z,6.92
2023-02-04T03:16:47.488Z,6.93
2023-02-04T03:19:14.086Z,6.96
2023-02-04T03:21:41.415Z,6.90
2023-02-04T03:24:08.072Z,6.93
2023-02-04T03:26:36.588Z,6.91
2023-02-04T03:29:03.019Z,6.91
2023-02-04T03:31:29.432Z,6.85
2023-02-04T03:33:55.789Z,6.90
2023-02-04T03:36:22.322Z,6.81
2023-02-04T03:38:48.642Z,6.92
2023-02-04T03:41:14.924Z,6.86
2023-02-04T03:43:41.255Z,6.83
2023-02-04T03:46:07.645Z,6.90
2023-02-04T03:48:33.977Z,6.75
2023-02-04T03:51:00.300Z,6.79
2023-02-04T03:53:26.637Z,6.85
2023-02-04T03:55:52.962Z,6.82
2023-02-04T03:58:19.564Z,6.77
2023-02-04T04:00:45.856Z,6.83
2023-02-04T04:03:12.150Z,6.83
2023-02-04T04:05:38.486Z,6.90
2023-02-04T04:08:04.955Z,6.67
2023-02-04T04:10:31.704Z,6.81
2023-02-04T04:12:58.189Z,6.72
2023-02-04T04:15:24.741Z,6.77
2023-02-04T04:17:51.048Z,6.72
2023-02-04T04:20:17.534Z,6.82
2023-02-04T04:22:45.686Z,6.77
2023-02-04T04:25:12.031Z,6.68
2023-02-04T04:27:38.375Z,6.75
2023-02-04T04:30:05.150Z,6.81
2023-02-04T04:32:31.565Z,6.71
2023-02-04T04:34:57.896Z,6.67
2023-02-04T04:37:24.199Z,6.70
2023-02-04T04:39:50.506Z,6.70
2023-02-04T04:42:16.818Z,6.73
2023-02-04T04:44:43.136Z,6.70
2023-02-04T04:47:09.451Z,6.72
2023-02-04T04:49:35.825Z,6.66
2023-02-04T04:52:02.187Z,6.66
2023-02-04T04:54:28.500Z,6.71
2023-02-04T04:56:54.920Z,6.67
2023-02-04T04:59:21.224Z,6.70
2023-02-04T05:01:47.626Z,6.69
2023-02-04T05:04:13.920Z,6.63
2023-02-04T05:06:40.224Z,6.72
2023-02-04T05:09:06.585Z,6.71
2023-02-04T05:11:33.359Z,6.65
2023-02-04T05:13:59.805Z,6.57
2023-02-04T05:16:26.184Z,6.60
2023-02-04T05:18:52.635Z,6.69
2023-02-04T05:21:18.991Z,6.63
2023-02-04T05:23:45.327Z,6.58
2023-02-04T05:26:15.358Z,6.66
2023-02-04T05:28:48.456Z,6.80
2023-02-04T05:31:14.893Z,6.84
2023-02-04T05:33:41.269Z,6.77
2023-02-04T05:36:07.558Z,6.77
2023-02-04T05:38:33.880Z,6.72
2023-02-04T05:41:00.186Z,6.59
2023-02-04T05:43:26.478Z,6.67
2023-02-04T05:45:52.871Z,6.73
2023-02-04T05:48:19.277Z,6.74
2023-02-04T05:50:45.568Z,6.56
2023-02-04T05:53:11.980Z,6.62
2023-02-04T05:55:39.042Z,6.57
2023-02-04T05:58:05.407Z,6.68
2023-02-04T06:00:32.027Z,6.68
2023-02-04T06:02:58.506Z,6.74
2023-02-04T06:05:24.894Z,6.63
2023-02-04T06:07:51.336Z,6.74
2023-02-04T06:10:18.101Z,6.73
2023-02-04T06:12:44.418Z,6.57
2023-02-04T06:15:11.730Z,6.51
2023-02-04T06:17:38.090Z,6.60
2023-02-04T06:20:05.667Z,6.59
2023-02-04T06:22:32.007Z,6.64
2023-02-04T06:24:58.695Z,6.71
2023-02-04T06:27:25.052Z,6.74
2023-02-04T06:29:53.463Z,6.85
2023-02-04T06:32:21.073Z,6.67
2023-02-04T06:34:47.472Z,6.63
2023-02-04T06:37:15.702Z,6.66
2023-02-04T06:39:42.019Z,6.71
2023-02-04T06:42:08.725Z,6.70
2023-02-04T06:44:35.049Z,6.48
2023-02-04T06:47:01.379Z,6.41
2023-02-04T06:49:27.895Z,6.41
2023-02-04T06:51:55.140Z,6.53
2023-02-04T06:54:21.587Z,6.41
2023-02-04T06:56:48.079Z,6.35
2023-02-04T06:59:14.356Z,6.34
2023-02-04T07:01:40.705Z,6.42
2023-02-04T07:04:07.048Z,6.55
2023-02-04T07:06:33.348Z,6.57
2023-02-04T07:08:59.692Z,6.50
2023-02-04T07:11:26.050Z,6.60
2023-02-04T07:13:52.321Z,6.59
2023-02-04T07:16:18.671Z,6.46
2023-02-04T07:18:45.093Z,6.45
2023-02-04T07:21:11.388Z,6.40
2023-02-04T07:23:37.712Z,6.36
2023-02-04T07:26:04.055Z,6.35
2023-02-04T07:28:31.406Z,6.37
2023-02-04T07:30:57.814Z,6.37
2023-02-04T07:33:24.158Z,6.46
2023-02-04T07:35:50.489Z,6.47
2023-02-04T07:38:16.851Z,6.44
2023-02-04T07:40:43.154Z,6.48
2023-02-04T07:43:09.559Z,6.52
2023-02-04T07:45:35.841Z,6.45
2023-02-04T07:48:02.135Z,6.44
2023-02-04T07:50:28.455Z,6.53
2023-02-04T07:52:54.839Z,6.58
2023-02-04T07:55:21.204Z,6.65
2023-02-04T07:57:47.509Z,6.57
2023-02-04T08:00:14.517Z,6.57
2023-02-04T08:02:41.694Z,6.65
2023-02-04T08:05:09.856Z,6.73
2023-02-04T08:07:36.203Z,6.69
2023-02-04T08:10:07.040Z,6.67
2023-02-04T08:12:33.439Z,6.66
2023-02-04T08:15:01.181Z,6.69
2023-02-04T08:17:27.905Z,6.79
2023-02-04T08:19:54.279Z,6.83
2023-02-04T08:22:20.680Z,6.94
2023-02-04T08:24:46.998Z,6.84
2023-02-04T08:27:13.770Z,6.79
2023-02-04T08:29:40.154Z,6.86
2023-02-04T08:32:06.529Z,6.85
2023-02-04T08:34:32.886Z,6.92
2023-02-04T08:36:59.173Z,6.98
2023-02-04T08:39:25.470Z,6.90
2023-02-04T08:41:51.756Z,6.96
2023-02-04T08:44:18.117Z,6.96
2023-02-04T08:46:44.542Z,6.89
2023-02-04T08:49:10.909Z,6.97
2023-02-04T08:51:37.236Z,7.07
2023-02-04T08:54:03.720Z,7.13
2023-02-04T08:56:31.067Z,7.11
2023-02-04T08:58:57.379Z,7.20
2023-02-04T09:01:23.787Z,7.26
2023-02-04T09:03:50.110Z,7.34
2023-02-04T09:06:16.394Z,7.39
2023-02-04T09:08:42.733Z,7.42
2023-02-04T09:11:11.157Z,7.39
2023-02-04T09:13:38.191Z,7.53
2023-02-04T09:16:04.960Z,7.56
2023-02-04T09:18:32.526Z,7.71
2023-02-04T09:20:59.200Z,7.85
2023-02-04T09:23:25.614Z,7.99
2023-02-04T09:25:51.972Z,8.00
2023-02-04T09:28:18.373Z,8.15
2023-02-04T09:30:46.510Z,8.13
2023-02-04T09:33:14.975Z,8.11
2023-02-04T09:35:41.253Z,8.19
2023-02-04T09:38:07.583Z,8.17
2023-02-04T09:40:37.338Z,8.06
2023-02-04T09:43:05.491Z,8.06
2023-02-04T09:45:34.861Z,8.00
2023-02-04T09:48:04.265Z,7.95
2023-02-04T09:50:32.677Z,7.95
2023-02-04T09:53:03.955Z,7.98
2023-02-04T09:55:34.227Z,8.04
2023-02-04T09:58:00.651Z,7.97
2023-02-04T10:00:29.471Z,8.08
2023-02-04T10:03:00.004Z,8.04
2023-02-04T10:05:31.941Z,8.12
2023-02-04T10:07:58.943Z,8.16
2023-02-04T10:10:27.372Z,8.07
2023-02-04T10:12:58.994Z,8.08
2023-02-04T10:15:26.143Z,8.03
2023-02-04T10:17:56.584Z,8.03
2023-02-04T10:20:24.950Z,8.04
2023-02-04T10:22:54.193Z,8.08
2023-02-04T10:25:23.387Z,7.96
2023-02-04T10:27:55.322Z,8.08
2023-02-04T10:30:23.119Z,8.08
2023-02-04T10:32:50.146Z,8.12
2023-02-04T10:35:18.354Z,8.22
2023-02-04T10:37:44.884Z,8.29
2023-02-04T10:40:25.881Z,8.25
2023-02-04T10:42:53.092Z,8.25
2023-02-04T10:45:27.618Z,8.37
2023-02-04T10:47:55.729Z,8.57
2023-02-04T10:50:24.600Z,8.81
2023-02-04T10:53:16.416Z,9.12
2023-02-04T10:55:47.333Z,9.47
2023-02-04T10:58:23.582Z,9.54
2023-02-04T11:00:49.976Z,9.68
2023-02-04T11:03:22.806Z,10.03
2023-02-04T11:05:50.019Z,10.47
2023-02-04T11:08:28.912Z,10.28
2023-02-04T11:10:58.940Z,9.92
2023-02-04T11:13:38.684Z,9.87
2023-02-04T11:16:18.962Z,9.60
2023-02-04T11:18:53.727Z,9.49
2023-02-04T11:21:29.240Z,9.26
2023-02-04T11:24:13.925Z,9.09
2023-02-04T11:26:42.163Z,8.98
2023-02-04T11:29:34.561Z,8.92
2023-02-04T11:32:04.521Z,8.89
2023-02-04T11:34:33.017Z,8.83
2023-02-04T11:37:02.337Z,8.83
2023-02-04T11:39:35.554Z,8.85
2023-02-04T11:42:02.426Z,8.94
2023-02-04T11:44:29.410Z,9.16
2023-02-04T11:46:56.872Z,9.45
2023-02-04T11:49:25.453Z,9.68
2023-02-04T11:52:03.694Z,10.15
2023-02-04T11:54:30.048Z,9.96
2023-02-04T11:56:59.790Z,9.70
2023-02-04T11:59:26.243Z,9.40
2023-02-04T12:02:03.777Z,9.04
2023-02-04T12:04:30.125Z,9.06
2023-02-04T12:07:01.852Z,8.98
2023-02-04T12:09:30.078Z,8.86
2023-02-04T12:12:01.568Z,8.74
2023-02-04T12:14:31.170Z,8.53
2023-02-04T12:16:57.577Z,8.47
2023-02-04T12:19:26.190Z,8.45
2023-02-04T12:21:54.689Z,8.92
2023-02-04T12:24:21.018Z,9.68
2023-02-04T12:26:47.465Z,10.37
2023-02-04T12:29:13.780Z,10.72
2023-02-04T12:31:40.223Z,11.25
2023-02-04T12:34:06.601Z,11.44
2023-02-04T12:36:32.912Z,11.71
2023-02-04T12:38:59.271Z,11.48
2023-02-04T12:41:26.022Z,10.96
2023-02-04T12:43:52.447Z,10.64
2023-02-04T12:46:18.874Z,10.26
2023-02-04T12:48:45.214Z,10.00
2023-02-04T12:51:11.709Z,9.79
2023-02-04T12:53:38.047Z,9.57
2023-02-04T12:56:04.808Z,9.41
2023-02-04T12:58:31.104Z,9.47
2023-02-04T13:00:57.586Z,9.45
2023-02-04T13:03:24.930Z,9.30
2023-02-04T13:05:51.261Z,9.24
2023-02-04T13:08:17.581Z,9.30
2023-02-04T13:10:43.927Z,9.15
2023-02-04T13:13:10.219Z,9.12
2023-02-04T13:15:36.519Z,9.00
2023-02-04T13:18:02.953Z,9.10
2023-02-04T13:20:29.246Z,9.11
2023-02-04T13:22:55.610Z,9.14
2023-02-04T13:25:21.949Z,9.12
2023-02-04T13:27:48.351Z,9.10
2023-02-04T13:30:15.776Z,9.13
2023-02-04T13:32:42.158Z,9.05
2023-02-04T13:35:08.457Z,9.19
2023-02-04T13:37:34.894Z,9.23
2023-02-04T13:40:01.260Z,9.23
2023-02-04T13:42:28.098Z,9.15
2023-02-04T13:44:55.157Z,9.10
2023-02-04T13:47:21.497Z,9.11
2023-02-04T13:49:47.997Z,9.04
2023-02-04T13:52:14.431Z,8.97
2023-02-04T13:54:40.720Z,8.88
2023-02-04T13:57:07.052Z,8.92
2023-02-04T13:59:33.349Z,8.91
2023-02-04T14:01:59.779Z,8.84
2023-02-04T14:04:26.971Z,8.94
2023-02-04T14:06:54.905Z,8.83
2023-02-04T14:09:21.715Z,8.81
2023-02-04T14:11:48.050Z,8.71
2023-02-04T14:14:14.636Z,8.81
2023-02-04T14:16:41.064Z,8.90
2023-02-04T14:19:07.536Z,8.88
2023-02-04T14:21:33.839Z,8.78
2023-02-04T14:24:01.306Z,8.74
2023-02-04T14:26:27.629Z,8.76
2023-02-04T14:28:53.982Z,8.84
2023-02-04T14:31:20.382Z,8.87
2023-02-04T14:33:49.156Z,8.78
2023-02-04T14:36:16.432Z,8.80
2023-02-04T14:38:42.873Z,8.69
2023-02-04T14:41:09.174Z,8.43
2023-02-04T14:43:37.120Z,8.63
2023-02-04T14:46:05.522Z,8.69
2023-02-04T14:48:32.107Z,8.64
2023-02-04T14:50:58.581Z,8.59
2023-02-04T14:53:24.910Z,8.65
2023-02-04T14:55:51.249Z,8.68
2023-02-04T14:58:18.283Z,8.75
2023-02-04T15:00:44.584Z,8.84
2023-02-04T15:03:10.892Z,8.68
2023-02-04T15:05:37.192Z,8.69
2023-02-04T15:08:04.598Z,8.64
2023-02-04T15:10:31.290Z,8.56
2023-02-04T15:12:58.155Z,8.56
2023-02-04T15:15:24.457Z,8.45
2023-02-04T15:17:50.783Z,8.50
2023-02-04T15:20:17.455Z,8.53
2023-02-04T15:22:43.819Z,8.60
2023-02-04T15:25:14.605Z,8.64
2023-02-04T15:27:41.094Z,8.62
2023-02-04T15:30:07.812Z,8.54
2023-02-04T15:32:34.204Z,8.53
2023-02-04T15:35:00.529Z,8.52
2023-02-04T15:37:26.912Z,8.37
2023-02-04T15:39:53.311Z,8.32
2023-02-04T15:42:19.714Z,8.39
2023-02-04T15:44:46.025Z,8.49
2023-02-04T15:47:12.342Z,8.34
2023-02-04T15:49:38.699Z,8.26
2023-02-04T15:52:08.968Z,8.29
2023-02-04T15:54:40.122Z,8.41
2023-02-04T15:57:06.451Z,8.39
2023-02-04T15:59:32.757Z,8.33
2023-02-04T16:01:59.048Z,8.32
2023-02-04T16:04:25.389Z,8.11
2023-02-04T16:06:58.319Z,8.20
2023-02-04T16:09:25.581Z,8.16
2023-02-04T16:11:51.885Z,8.20
2023-02-04T16:14:18.181Z,8.03
2023-02-04T16:16:44.496Z,8.05
2023-02-04T16:19:10.786Z,8.02
2023-02-04T16:21:37.142Z,8.05
2023-02-04T16:24:03.658Z,8.02
2023-02-04T16:26:31.399Z,7.97
2023-02-04T16:28:58.018Z,7.94
2023-02-04T16:31:24.544Z,8.01
2023-02-04T16:33:50.906Z,7.90
2023-02-04T16:36:18.545Z,7.89
2023-02-04T16:38:45.148Z,7.89
2023-02-04T16:41:14.061Z,7.78
2023-02-04T16:43:40.403Z,7.86
2023-02-04T16:46:06.800Z,7.93
2023-02-04T16:48:33.238Z,7.98
2023-02-04T16:50:59.562Z,7.80
2023-02-04T16:53:26.000Z,7.79
2023-02-04T16:55:52.325Z,7.57
2023-02-04T16:58:19.586Z,7.49
2023-02-04T17:00:46.008Z,7.37
2023-02-04T17:03:12.540Z,7.24
2023-02-04T17:05:39.926Z,7.21
2023-02-04T17:08:06.710Z,7.27
2023-02-04T17:10:51.938Z,7.39
2023-02-04T17:13:18.518Z,7.28
2023-02-04T17:15:44.905Z,7.26
2023-02-04T17:18:11.594Z,7.17
2023-02-04T17:20:37.964Z,7.18
2023-02-04T17:23:04.261Z,7.13
2023-02-04T17:25:30.965Z,7.21
2023-02-04T17:27:57.465Z,7.35
2023-02-04T17:30:23.898Z,7.38
2023-02-04T17:32:50.314Z,7.39
2023-02-04T17:35:17.258Z,7.22
2023-02-04T17:37:43.849Z,7.05
2023-02-04T17:40:14.058Z,6.93
2023-02-04T17:42:40.960Z,7.02
2023-02-04T17:45:10.339Z,7.20
2023-02-04T17:47:39.686Z,7.13
2023-02-04T17:50:10.240Z,7.10
2023-02-04T17:52:37.810Z,7.10
2023-02-04T17:55:27.522Z,7.18
2023-02-04T17:57:55.105Z,6.97
2023-02-04T18:00:23.410Z,6.88
2023-02-04T18:02:51.778Z,6.86
2023-02-04T18:05:21.611Z,6.95
2023-02-04T18:08:01.383Z,6.84
2023-02-04T18:10:36.371Z,6.87
2023-02-04T18:13:13.001Z,6.86
2023-02-04T18:15:39.544Z,6.87
2023-02-04T18:18:27.275Z,6.71
2023-02-04T18:20:59.419Z,6.47
2023-02-04T18:23:28.356Z,6.61
2023-02-04T18:25:55.045Z,6.62
2023-02-04T18:28:22.038Z,6.64
2023-02-04T18:30:53.051Z,6.56
2023-02-04T18:33:23.225Z,6.47
2023-02-04T18:35:51.564Z,6.37
2023-02-04T18:38:23.445Z,6.40
2023-02-04T18:40:52.184Z,6.50
2023-02-04T18:43:24.836Z,6.61
2023-02-04T18:45:51.741Z,6.53
2023-02-04T18:48:17.998Z,6.51
2023-02-04T18:50:46.129Z,6.44
2023-02-04T18:53:12.418Z,6.51
2023-02-04T18:55:41.592Z,6.55
2023-02-04T18:58:17.252Z,6.55
2023-02-04T19:00:48.972Z,6.36
2023-02-04T19:03:35.227Z,6.51
2023-02-04T19:06:03.275Z,6.58
2023-02-04T19:08:41.711Z,6.54
2023-02-04T19:11:37.755Z,6.50
2023-02-04T19:14:32.831Z,6.48
2023-02-04T19:17:28.480Z,6.29
2023-02-04T19:19:59.406Z,6.26
2023-02-04T19:22:49.983Z,6.07
2023-02-04T19:25:22.198Z,6.19
2023-02-04T19:27:53.895Z,6.16
2023-02-04T19:30:26.310Z,6.15
2023-02-04T19:32:55.809Z,6.02
2023-02-04T19:35:24.460Z,5.99
2023-02-04T19:38:00.364Z,5.87
2023-02-04T19:40:33.576Z,5.80
2023-02-04T19:43:22.161Z,5.56
2023-02-04T19:45:50.813Z,5.69
2023-02-04T19:48:35.390Z,5.65
2023-02-04T19:51:23.672Z,5.85
2023-02-04T19:53:53.845Z,5.55
2023-02-04T19:56:32.196Z,5.63
2023-02-04T19:59:23.281Z,5.63
2023-02-04T20:01:59.462Z,5.48
2023-02-04T20:04:34.413Z,5.45
2023-02-04T20:07:00.799Z,5.20
2023-02-04T20:09:30.651Z,5.31
2023-02-04T20:12:05.721Z,5.44
2023-02-04T20:14:41.610Z,5.37
2023-02-04T20:17:38.938Z,5.26
2023-02-04T20:20:29.266Z,5.27
2023-02-04T20:23:00.895Z,5.24
2023-02-04T20:25:36.965Z,5.27
2023-02-04T20:28:15.683Z,5.37
2023-02-04T20:30:42.247Z,5.35
2023-02-04T20:33:23.830Z,5.29
2023-02-04T20:35:50.101Z,5.15
2023-02-04T20:38:17.494Z,5.28
2023-02-04T20:40:47.304Z,5.28
2023-02-04T20:43:20.053Z,5.33
2023-02-04T20:45:58.977Z,5.46
2023-02-04T20:48:31.226Z,5.19
2023-02-04T20:51:00.870Z,5.02
2023-02-04T20:53:49.264Z,5.04
2023-02-04T20:56:40.718Z,5.09
2023-02-04T20:59:15.958Z,5.27
2023-02-04T21:01:44.179Z,4.97
2023-02-04T21:04:19.472Z,5.09
2023-02-04T21:06:46.129Z,5.20
2023-02-04T21:09:25.414Z,5.01
2023-02-04T21:11:54.013Z,4.80
2023-02-04T21:14:21.427Z,4.84
2023-02-04T21:16:48.209Z,4.83
2023-02-04T21:19:14.955Z,4.81
2023-02-04T21:21:41.652Z,4.66
2023-02-04T21:24:08.623Z,4.72
2023-02-04T21:26:34.958Z,4.45
2023-02-04T21:29:01.365Z,4.33
2023-02-04T21:31:27.773Z,4.35
2023-02-04T21:33:54.214Z,4.27
2023-02-04T21:36:20.857Z,4.43
2023-02-04T21:38:47.235Z,4.27
2023-02-04T21:41:13.788Z,4.25
2023-02-04T21:43:40.117Z,4.27
2023-02-04T21:46:06.444Z,4.19
2023-02-04T21:48:32.850Z,4.21
2023-02-04T21:50:59.263Z,3.99
2023-02-04T21:53:25.705Z,4.28
2023-02-04T21:55:52.013Z,4.31
2023-02-04T21:58:18.349Z,4.22
2023-02-04T22:00:44.689Z,4.09
2023-02-04T22:03:17.007Z,3.83
2023-02-04T22:05:44.569Z,3.87
2023-02-04T22:08:11.847Z,3.94
2023-02-04T22:10:38.511Z,3.93
2023-02-04T22:13:04.841Z,3.83
2023-02-04T22:15:31.385Z,3.93
2023-02-04T22:17:57.888Z,3.96
2023-02-04T22:20:25.350Z,3.80
2023-02-04T22:22:52.612Z,3.93
2023-02-04T22:25:20.513Z,3.87
2023-02-04T22:27:47.087Z,4.02
2023-02-04T22:30:15.810Z,3.98
2023-02-04T22:32:42.298Z,3.71
2023-02-04T22:35:10.451Z,3.50
2023-02-04T22:37:38.338Z,3.44
2023-02-04T22:40:05.763Z,3.36
2023-02-04T22:42:32.096Z,3.33
2023-02-04T22:44:58.472Z,3.21
2023-02-04T22:47:25.251Z,3.30
2023-02-04T22:49:51.572Z,3.24
2023-02-04T22:52:18.312Z,3.40
2023-02-04T22:54:44.672Z,3.50
2023-02-04T22:57:11.057Z,3.40
2023-02-04T22:59:37.457Z,3.31
2023-02-04T23:02:03.962Z,2.98
2023-02-04T23:04:30.297Z,3.08
2023-02-04T23:06:56.716Z,3.15
2023-02-04T23:09:23.222Z,3.26
2023-02-04T23:11:49.660Z,3.42
2023-02-04T23:14:16.017Z,3.36
2023-02-04T23:16:42.407Z,3.24
2023-02-04T23:19:08.787Z,3.12
2023-02-04T23:21:35.379Z,3.20
2023-02-04T23:24:01.867Z,3.15
2023-02-04T23:26:28.235Z,3.33
2023-02-04T23:28:54.646Z,3.25
2023-02-04T23:31:20.989Z,3.29
2023-02-04T23:33:47.296Z,3.35
2023-02-04T23:36:13.623Z,3.41
2023-02-04T23:38:39.913Z,3.32
2023-02-04T23:41:06.257Z,3.55
2023-02-04T23:43:32.613Z,3.47
2023-02-04T23:45:59.954Z,3.49
2023-02-04T23:48:26.334Z,3.38
2023-02-04T23:50:52.790Z,3.66
2023-02-04T23:53:19.339Z,3.52
2023-02-04T23:55:46.107Z,3.28
2023-02-04T23:58:12.562Z,3.19
